sensor_id;sensor_type;location;lat;lon;timestamp;temperature;humidity
9414;DHT22;4746;35.664;139.738;2023-04-07T00:01:01;18.90;99.90
9414;DHT22;4746;35.664;139.738;2023-04-07T00:03:29;18.80;99.90
9414;DHT22;4746;35.664;139.738;2023-04-07T00:05:57;18.80;99.90
9414;DHT22;4746;35.664;139.738;2023-04-07T00:08:25;18.90;99.90
9414;DHT22;4746;35.664;139.738;2023-04-07T00:10:52;18.90;99.90
9414;DHT22;4746;35.664;139.738;2023-04-07T00:13:20;18.90;99.90
9414;DHT22;4746;35.664;139.738;2023-04-07T00:15:47;19.00;99.90
9414;DHT22;4746;35.664;139.738;2023-04-07T00:18:15;19.00;99.90
9414;DHT22;4746;35.664;139.738;2023-04-07T00:20:42;19.10;99.90
9414;DHT22;4746;35.664;139.738;2023-04-07T00:23:10;19.20;99.90
9414;DHT22;4746;35.664;139.738;2023-04-07T00:25:37;19.30;99.90
9414;DHT22;4746;35.664;139.738;2023-04-07T00:28:05;19.40;99.90
9414;DHT22;4746;35.664;139.738;2023-04-07T00:30:32;19.40;99.90
9414;DHT22;4746;35.664;139.738;2023-04-07T00:33:00;19.50;99.90
9414;DHT22;4746;35.664;139.738;2023-04-07T00:35:27;19.40;99.90
9414;DHT22;4746;35.664;139.738;2023-04-07T00:37:55;19.40;99.90
9414;DHT22;4746;35.664;139.738;2023-04-07T00:40:22;19.40;99.90
9414;DHT22;4746;35.664;139.738;2023-04-07T00:42:51;19.40;99.90
9414;DHT22;4746;35.664;139.738;2023-04-07T00:45:18;19.40;99.90
9414;DHT22;4746;35.664;139.738;2023-04-07T00:47:46;19.40;99.90
9414;DHT22;4746;35.664;139.738;2023-04-07T00:50:13;19.40;99.90
9414;DHT22;4746;35.664;139.738;2023-04-07T00:52:41;19.50;99.90
9414;DHT22;4746;35.664;139.738;2023-04-07T00:55:09;19.40;99.90
9414;DHT22;4746;35.664;139.738;2023-04-07T00:57:37;19.30;99.90
9414;DHT22;4746;35.664;139.738;2023-04-07T01:00:05;19.30;99.90
9414;DHT22;4746;35.664;139.738;2023-04-07T01:02:42;19.20;99.90
9414;DHT22;4746;35.664;139.738;2023-04-07T01:08:23;18.90;99.90
9414;DHT22;4746;35.664;139.738;2023-04-07T01:11:16;18.90;99.90
9414;DHT22;4746;35.664;139.738;2023-04-07T01:13:51;18.70;99.90
9414;DHT22;4746;35.664;139.738;2023-04-07T01:16:26;18.80;99.90
9414;DHT22;4746;35.664;139.738;2023-04-07T01:21:58;18.80;99.90
9414;DHT22;4746;35.664;139.738;2023-04-07T01:30:37;19.10;99.90
9414;DHT22;4746;35.664;139.738;2023-04-07T01:33:09;19.30;99.90
9414;DHT22;4746;35.664;139.738;2023-04-07T01:35:38;19.30;99.90
9414;DHT22;4746;35.664;139.738;2023-04-07T01:38:08;19.40;99.90
9414;DHT22;4746;35.664;139.738;2023-04-07T01:40:38;19.50;99.90
9414;DHT22;4746;35.664;139.738;2023-04-07T01:43:08;19.50;99.90
9414;DHT22;4746;35.664;139.738;2023-04-07T01:45:36;19.60;99.90
9414;DHT22;4746;35.664;139.738;2023-04-07T01:48:06;19.60;99.90
9414;DHT22;4746;35.664;139.738;2023-04-07T01:50:35;19.60;99.90
9414;DHT22;4746;35.664;139.738;2023-04-07T01:53:05;19.50;99.90
9414;DHT22;4746;35.664;139.738;2023-04-07T01:55:33;19.50;99.90
9414;DHT22;4746;35.664;139.738;2023-04-07T01:58:05;19.40;99.90
9414;DHT22;4746;35.664;139.738;2023-04-07T02:00:33;19.20;99.90
9414;DHT22;4746;35.664;139.738;2023-04-07T02:03:17;19.10;99.90
9414;DHT22;4746;35.664;139.738;2023-04-07T02:05:53;18.90;99.90
9414;DHT22;4746;35.664;139.738;2023-04-07T02:08:26;18.80;99.90
9414;DHT22;4746;35.664;139.738;2023-04-07T02:10:55;18.70;99.90
9414;DHT22;4746;35.664;139.738;2023-04-07T02:13:25;18.80;99.90
9414;DHT22;4746;35.664;139.738;2023-04-07T02:15:57;18.80;99.90
9414;DHT22;4746;35.664;139.738;2023-04-07T02:18:27;18.50;99.90
9414;DHT22;4746;35.664;139.738;2023-04-07T02:20:58;18.30;99.90
9414;DHT22;4746;35.664;139.738;2023-04-07T02:23:26;18.20;99.90
9414;DHT22;4746;35.664;139.738;2023-04-07T02:25:57;18.20;99.90
9414;DHT22;4746;35.664;139.738;2023-04-07T02:28:24;18.20;99.90
9414;DHT22;4746;35.664;139.738;2023-04-07T02:30:52;18.20;99.90
9414;DHT22;4746;35.664;139.738;2023-04-07T02:33:19;18.20;99.90
9414;DHT22;4746;35.664;139.738;2023-04-07T02:35:47;18.40;99.90
9414;DHT22;4746;35.664;139.738;2023-04-07T02:38:14;18.60;99.90
9414;DHT22;4746;35.664;139.738;2023-04-07T02:40:42;18.80;99.90
9414;DHT22;4746;35.664;139.738;2023-04-07T02:43:10;19.00;99.90
9414;DHT22;4746;35.664;139.738;2023-04-07T02:45:37;19.10;99.90
9414;DHT22;4746;35.664;139.738;2023-04-07T02:48:05;19.20;99.90
9414;DHT22;4746;35.664;139.738;2023-04-07T02:50:33;19.30;99.90
9414;DHT22;4746;35.664;139.738;2023-04-07T02:53:00;19.40;99.90
9414;DHT22;4746;35.664;139.738;2023-04-07T02:55:28;19.40;99.90
9414;DHT22;4746;35.664;139.738;2023-04-07T02:57:55;19.50;99.90
9414;DHT22;4746;35.664;139.738;2023-04-07T03:00:25;19.60;99.90
9414;DHT22;4746;35.664;139.738;2023-04-07T03:02:53;19.60;99.90
9414;DHT22;4746;35.664;139.738;2023-04-07T03:05:20;19.70;99.90
9414;DHT22;4746;35.664;139.738;2023-04-07T03:07:51;19.60;99.90
9414;DHT22;4746;35.664;139.738;2023-04-07T03:10:18;19.50;99.90
9414;DHT22;4746;35.664;139.738;2023-04-07T03:12:46;19.60;99.90
9414;DHT22;4746;35.664;139.738;2023-04-07T03:15:14;19.70;99.90
9414;DHT22;4746;35.664;139.738;2023-04-07T03:17:42;19.70;99.90
9414;DHT22;4746;35.664;139.738;2023-04-07T03:20:09;19.70;99.90
9414;DHT22;4746;35.664;139.738;2023-04-07T03:22:37;19.80;99.90
9414;DHT22;4746;35.664;139.738;2023-04-07T03:25:05;19.80;99.90
9414;DHT22;4746;35.664;139.738;2023-04-07T03:27:33;19.70;99.90
9414;DHT22;4746;35.664;139.738;2023-04-07T03:30:00;19.70;99.90
9414;DHT22;4746;35.664;139.738;2023-04-07T03:32:28;19.70;99.90
9414;DHT22;4746;35.664;139.738;2023-04-07T03:34:56;19.60;99.90
9414;DHT22;4746;35.664;139.738;2023-04-07T03:37:23;19.50;99.90
9414;DHT22;4746;35.664;139.738;2023-04-07T03:39:51;19.50;99.90
9414;DHT22;4746;35.664;139.738;2023-04-07T03:42:18;19.50;99.90
9414;DHT22;4746;35.664;139.738;2023-04-07T03:44:46;19.40;99.90
9414;DHT22;4746;35.664;139.738;2023-04-07T03:47:14;19.50;99.90
9414;DHT22;4746;35.664;139.738;2023-04-07T03:49:41;19.40;99.90
9414;DHT22;4746;35.664;139.738;2023-04-07T03:52:09;19.50;99.90
9414;DHT22;4746;35.664;139.738;2023-04-07T03:54:36;19.60;99.90
9414;DHT22;4746;35.664;139.738;2023-04-07T03:57:04;19.70;99.90
9414;DHT22;4746;35.664;139.738;2023-04-07T03:59:31;19.70;99.90
9414;DHT22;4746;35.664;139.738;2023-04-07T04:01:59;19.80;99.90
9414;DHT22;4746;35.664;139.738;2023-04-07T04:04:26;19.80;99.90
9414;DHT22;4746;35.664;139.738;2023-04-07T04:06:54;19.80;99.90
9414;DHT22;4746;35.664;139.738;2023-04-07T04:09:21;19.90;99.90
9414;DHT22;4746;35.664;139.738;2023-04-07T04:11:49;19.90;99.90
9414;DHT22;4746;35.664;139.738;2023-04-07T04:14:17;19.80;99.90
9414;DHT22;4746;35.664;139.738;2023-04-07T04:16:44;19.80;99.90
9414;DHT22;4746;35.664;139.738;2023-04-07T04:19:12;19.90;99.90
9414;DHT22;4746;35.664;139.738;2023-04-07T04:21:39;19.90;99.90
9414;DHT22;4746;35.664;139.738;2023-04-07T04:24:07;19.90;99.90
9414;DHT22;4746;35.664;139.738;2023-04-07T04:26:34;20.00;99.90
9414;DHT22;4746;35.664;139.738;2023-04-07T04:29:02;19.90;99.90
9414;DHT22;4746;35.664;139.738;2023-04-07T04:31:29;19.90;99.90
9414;DHT22;4746;35.664;139.738;2023-04-07T04:33:57;20.00;99.90
9414;DHT22;4746;35.664;139.738;2023-04-07T04:36:24;20.00;99.90
9414;DHT22;4746;35.664;139.738;2023-04-07T04:38:52;20.00;99.90
9414;DHT22;4746;35.664;139.738;2023-04-07T04:41:20;20.00;99.90
9414;DHT22;4746;35.664;139.738;2023-04-07T04:43:47;20.00;99.90
9414;DHT22;4746;35.664;139.738;2023-04-07T04:46:15;20.10;99.90
9414;DHT22;4746;35.664;139.738;2023-04-07T04:48:43;20.10;99.90
9414;DHT22;4746;35.664;139.738;2023-04-07T04:51:10;20.20;99.90
9414;DHT22;4746;35.664;139.738;2023-04-07T04:53:38;20.30;99.90
9414;DHT22;4746;35.664;139.738;2023-04-07T04:56:06;20.40;99.90
9414;DHT22;4746;35.664;139.738;2023-04-07T04:58:34;20.30;99.90
9414;DHT22;4746;35.664;139.738;2023-04-07T05:01:02;20.30;99.90
9414;DHT22;4746;35.664;139.738;2023-04-07T05:03:30;20.40;99.90
9414;DHT22;4746;35.664;139.738;2023-04-07T05:05:59;20.80;99.90
9414;DHT22;4746;35.664;139.738;2023-04-07T05:08:26;21.30;99.90
9414;DHT22;4746;35.664;139.738;2023-04-07T05:10:54;21.80;99.90
9414;DHT22;4746;35.664;139.738;2023-04-07T05:13:21;22.00;99.90
9414;DHT22;4746;35.664;139.738;2023-04-07T05:15:50;22.00;99.90
9414;DHT22;4746;35.664;139.738;2023-04-07T05:18:18;21.80;99.90
9414;DHT22;4746;35.664;139.738;2023-04-07T05:20:48;21.80;99.90
9414;DHT22;4746;35.664;139.738;2023-04-07T05:23:16;21.40;99.90
9414;DHT22;4746;35.664;139.738;2023-04-07T05:25:45;21.30;99.90
9414;DHT22;4746;35.664;139.738;2023-04-07T05:28:13;21.20;99.90
9414;DHT22;4746;35.664;139.738;2023-04-07T05:30:40;21.00;99.90
9414;DHT22;4746;35.664;139.738;2023-04-07T05:33:08;20.90;99.90
9414;DHT22;4746;35.664;139.738;2023-04-07T05:35:36;20.80;99.90
9414;DHT22;4746;35.664;139.738;2023-04-07T05:38:03;20.60;99.90
9414;DHT22;4746;35.664;139.738;2023-04-07T05:40:31;20.60;99.90
9414;DHT22;4746;35.664;139.738;2023-04-07T05:42:58;20.50;99.90
9414;DHT22;4746;35.664;139.738;2023-04-07T05:45:26;20.50;99.90
9414;DHT22;4746;35.664;139.738;2023-04-07T05:47:53;20.30;99.90
9414;DHT22;4746;35.664;139.738;2023-04-07T05:50:21;20.40;99.90
9414;DHT22;4746;35.664;139.738;2023-04-07T05:52:48;20.40;99.90
9414;DHT22;4746;35.664;139.738;2023-04-07T05:55:16;20.50;99.90
9414;DHT22;4746;35.664;139.738;2023-04-07T05:57:44;20.50;99.90
9414;DHT22;4746;35.664;139.738;2023-04-07T06:00:14;20.40;99.90
9414;DHT22;4746;35.664;139.738;2023-04-07T06:02:42;20.40;99.90
9414;DHT22;4746;35.664;139.738;2023-04-07T06:05:09;20.40;99.90
9414;DHT22;4746;35.664;139.738;2023-04-07T06:07:37;20.20;99.90
9414;DHT22;4746;35.664;139.738;2023-04-07T06:10:07;20.30;99.90
9414;DHT22;4746;35.664;139.738;2023-04-07T06:12:35;20.20;99.90
9414;DHT22;4746;35.664;139.738;2023-04-07T06:15:03;20.10;99.90
9414;DHT22;4746;35.664;139.738;2023-04-07T06:17:32;20.10;99.90
9414;DHT22;4746;35.664;139.738;2023-04-07T06:19:59;20.00;99.90
9414;DHT22;4746;35.664;139.738;2023-04-07T06:22:27;19.90;99.90
9414;DHT22;4746;35.664;139.738;2023-04-07T06:24:54;19.90;99.90
9414;DHT22;4746;35.664;139.738;2023-04-07T06:27:22;19.90;99.90
9414;DHT22;4746;35.664;139.738;2023-04-07T06:29:49;19.90;99.90
9414;DHT22;4746;35.664;139.738;2023-04-07T06:32:17;19.90;99.90
9414;DHT22;4746;35.664;139.738;2023-04-07T06:34:45;19.90;99.90
9414;DHT22;4746;35.664;139.738;2023-04-07T06:37:13;19.80;99.90
9414;DHT22;4746;35.664;139.738;2023-04-07T06:39:42;19.70;99.90
9414;DHT22;4746;35.664;139.738;2023-04-07T06:42:10;19.70;99.90
9414;DHT22;4746;35.664;139.738;2023-04-07T06:44:38;19.70;99.90
9414;DHT22;4746;35.664;139.738;2023-04-07T06:47:05;19.70;99.90
9414;DHT22;4746;35.664;139.738;2023-04-07T06:49:34;19.60;99.90
9414;DHT22;4746;35.664;139.738;2023-04-07T06:52:02;19.60;99.90
9414;DHT22;4746;35.664;139.738;2023-04-07T06:54:30;19.50;99.90
9414;DHT22;4746;35.664;139.738;2023-04-07T06:56:57;19.50;99.90
9414;DHT22;4746;35.664;139.738;2023-04-07T06:59:25;19.50;99.90
9414;DHT22;4746;35.664;139.738;2023-04-07T07:01:52;19.60;99.90
9414;DHT22;4746;35.664;139.738;2023-04-07T07:04:19;19.50;99.90
9414;DHT22;4746;35.664;139.738;2023-04-07T07:06:47;19.40;99.90
9414;DHT22;4746;35.664;139.738;2023-04-07T07:09:14;19.40;99.90
9414;DHT22;4746;35.664;139.738;2023-04-07T07:11:42;19.40;99.90
9414;DHT22;4746;35.664;139.738;2023-04-07T07:14:09;19.30;99.90
9414;DHT22;4746;35.664;139.738;2023-04-07T07:16:37;19.30;99.90
9414;DHT22;4746;35.664;139.738;2023-04-07T07:19:06;19.30;99.90
9414;DHT22;4746;35.664;139.738;2023-04-07T07:21:35;19.20;99.90
9414;DHT22;4746;35.664;139.738;2023-04-07T07:24:02;19.20;99.90
9414;DHT22;4746;35.664;139.738;2023-04-07T07:26:30;19.20;99.90
9414;DHT22;4746;35.664;139.738;2023-04-07T07:28:58;19.10;99.90
9414;DHT22;4746;35.664;139.738;2023-04-07T07:31:25;19.10;99.90
9414;DHT22;4746;35.664;139.738;2023-04-07T07:33:53;19.10;99.90
9414;DHT22;4746;35.664;139.738;2023-04-07T07:36:20;19.10;99.90
9414;DHT22;4746;35.664;139.738;2023-04-07T07:38:49;19.00;99.90
9414;DHT22;4746;35.664;139.738;2023-04-07T07:41:17;19.00;99.90
9414;DHT22;4746;35.664;139.738;2023-04-07T07:43:44;19.00;99.90
9414;DHT22;4746;35.664;139.738;2023-04-07T07:46:12;19.00;99.90
9414;DHT22;4746;35.664;139.738;2023-04-07T07:48:39;18.90;99.90
9414;DHT22;4746;35.664;139.738;2023-04-07T07:51:07;18.90;99.90
9414;DHT22;4746;35.664;139.738;2023-04-07T07:53:34;18.80;99.90
9414;DHT22;4746;35.664;139.738;2023-04-07T07:56:02;18.80;99.90
9414;DHT22;4746;35.664;139.738;2023-04-07T07:58:29;18.80;99.90
9414;DHT22;4746;35.664;139.738;2023-04-07T08:00:57;18.80;99.90
9414;DHT22;4746;35.664;139.738;2023-04-07T08:03:25;18.80;99.90
9414;DHT22;4746;35.664;139.738;2023-04-07T08:05:54;18.90;99.90
9414;DHT22;4746;35.664;139.738;2023-04-07T08:08:22;18.90;99.90
9414;DHT22;4746;35.664;139.738;2023-04-07T08:10:49;18.90;99.90
9414;DHT22;4746;35.664;139.738;2023-04-07T08:13:17;18.90;99.90
9414;DHT22;4746;35.664;139.738;2023-04-07T08:15:44;18.90;99.90
9414;DHT22;4746;35.664;139.738;2023-04-07T08:18:12;18.90;99.90
9414;DHT22;4746;35.664;139.738;2023-04-07T08:20:39;18.90;99.90
9414;DHT22;4746;35.664;139.738;2023-04-07T08:23:07;18.90;99.90
9414;DHT22;4746;35.664;139.738;2023-04-07T08:25:34;18.90;99.90
9414;DHT22;4746;35.664;139.738;2023-04-07T08:28:02;18.90;99.90
9414;DHT22;4746;35.664;139.738;2023-04-07T08:30:33;18.80;99.90
9414;DHT22;4746;35.664;139.738;2023-04-07T08:33:04;18.70;99.90
9414;DHT22;4746;35.664;139.738;2023-04-07T08:35:35;18.70;99.90
9414;DHT22;4746;35.664;139.738;2023-04-07T08:38:02;18.70;99.90
9414;DHT22;4746;35.664;139.738;2023-04-07T08:40:32;18.70;99.90
9414;DHT22;4746;35.664;139.738;2023-04-07T08:43:00;18.70;99.90
9414;DHT22;4746;35.664;139.738;2023-04-07T08:45:37;18.70;99.90
9414;DHT22;4746;35.664;139.738;2023-04-07T08:48:26;18.70;99.90
9414;DHT22;4746;35.664;139.738;2023-04-07T08:51:06;18.60;99.90
9414;DHT22;4746;35.664;139.738;2023-04-07T08:53:40;18.50;99.90
9414;DHT22;4746;35.664;139.738;2023-04-07T08:56:17;18.50;99.90
9414;DHT22;4746;35.664;139.738;2023-04-07T08:58:49;18.40;99.90
9414;DHT22;4746;35.664;139.738;2023-04-07T09:01:19;18.40;99.90
9414;DHT22;4746;35.664;139.738;2023-04-07T09:03:49;18.40;99.90
9414;DHT22;4746;35.664;139.738;2023-04-07T09:06:17;18.40;99.90
9414;DHT22;4746;35.664;139.738;2023-04-07T09:08:44;18.30;99.90
9414;DHT22;4746;35.664;139.738;2023-04-07T09:11:13;18.30;99.90
9414;DHT22;4746;35.664;139.738;2023-04-07T09:13:49;18.20;99.90
9414;DHT22;4746;35.664;139.738;2023-04-07T09:16:17;18.20;99.90
9414;DHT22;4746;35.664;139.738;2023-04-07T09:18:45;18.10;99.90
9414;DHT22;4746;35.664;139.738;2023-04-07T09:21:13;18.10;99.90
9414;DHT22;4746;35.664;139.738;2023-04-07T09:23:44;18.10;99.90
9414;DHT22;4746;35.664;139.738;2023-04-07T09:26:29;18.00;99.90
9414;DHT22;4746;35.664;139.738;2023-04-07T09:28:59;18.00;99.90
9414;DHT22;4746;35.664;139.738;2023-04-07T09:31:49;18.10;99.90
9414;DHT22;4746;35.664;139.738;2023-04-07T09:34:28;18.10;99.90
9414;DHT22;4746;35.664;139.738;2023-04-07T09:36:57;18.10;99.90
9414;DHT22;4746;35.664;139.738;2023-04-07T09:39:25;18.10;99.90
9414;DHT22;4746;35.664;139.738;2023-04-07T09:41:53;18.10;99.90
9414;DHT22;4746;35.664;139.738;2023-04-07T09:44:23;18.10;99.90
9414;DHT22;4746;35.664;139.738;2023-04-07T09:46:57;18.10;99.90
9414;DHT22;4746;35.664;139.738;2023-04-07T09:49:28;18.00;99.90
9414;DHT22;4746;35.664;139.738;2023-04-07T09:52:47;18.10;99.90
9414;DHT22;4746;35.664;139.738;2023-04-07T09:55:15;18.10;99.90
9414;DHT22;4746;35.664;139.738;2023-04-07T09:57:50;18.10;99.90
9414;DHT22;4746;35.664;139.738;2023-04-07T10:00:20;18.10;99.90
9414;DHT22;4746;35.664;139.738;2023-04-07T10:02:49;18.10;99.90
9414;DHT22;4746;35.664;139.738;2023-04-07T10:05:18;18.10;99.90
9414;DHT22;4746;35.664;139.738;2023-04-07T10:07:49;18.10;99.90
9414;DHT22;4746;35.664;139.738;2023-04-07T10:10:16;18.10;99.90
9414;DHT22;4746;35.664;139.738;2023-04-07T10:12:44;18.20;99.90
9414;DHT22;4746;35.664;139.738;2023-04-07T10:15:15;18.10;99.90
9414;DHT22;4746;35.664;139.738;2023-04-07T10:17:46;18.10;99.90
9414;DHT22;4746;35.664;139.738;2023-04-07T10:20:20;18.10;99.90
9414;DHT22;4746;35.664;139.738;2023-04-07T10:22:49;18.20;99.90
9414;DHT22;4746;35.664;139.738;2023-04-07T10:25:21;18.20;99.90
9414;DHT22;4746;35.664;139.738;2023-04-07T10:27:59;18.20;99.90
9414;DHT22;4746;35.664;139.738;2023-04-07T10:30:33;18.20;99.90
9414;DHT22;4746;35.664;139.738;2023-04-07T10:33:01;18.20;99.90
9414;DHT22;4746;35.664;139.738;2023-04-07T10:36:04;18.20;99.90
9414;DHT22;4746;35.664;139.738;2023-04-07T10:38:33;18.10;99.90
9414;DHT22;4746;35.664;139.738;2023-04-07T10:41:30;18.20;99.90
9414;DHT22;4746;35.664;139.738;2023-04-07T10:44:05;18.20;99.90
9414;DHT22;4746;35.664;139.738;2023-04-07T10:49:15;18.10;99.90
9414;DHT22;4746;35.664;139.738;2023-04-07T10:51:43;18.20;99.90
9414;DHT22;4746;35.664;139.738;2023-04-07T10:54:31;18.20;99.90
9414;DHT22;4746;35.664;139.738;2023-04-07T10:57:06;18.20;99.90
9414;DHT22;4746;35.664;139.738;2023-04-07T11:02:40;18.20;99.90
9414;DHT22;4746;35.664;139.738;2023-04-07T11:05:19;18.20;99.90
9414;DHT22;4746;35.664;139.738;2023-04-07T11:07:53;18.20;99.90
9414;DHT22;4746;35.664;139.738;2023-04-07T11:10:22;18.20;99.90
9414;DHT22;4746;35.664;139.738;2023-04-07T11:13:02;18.30;99.90
9414;DHT22;4746;35.664;139.738;2023-04-07T11:15:35;18.20;99.90
9414;DHT22;4746;35.664;139.738;2023-04-07T11:18:11;18.30;99.90
9414;DHT22;4746;35.664;139.738;2023-04-07T11:20:46;18.20;99.90
9414;DHT22;4746;35.664;139.738;2023-04-07T11:23:16;18.20;99.90
9414;DHT22;4746;35.664;139.738;2023-04-07T11:25:48;18.20;99.90
9414;DHT22;4746;35.664;139.738;2023-04-07T11:28:18;18.10;99.90
9414;DHT22;4746;35.664;139.738;2023-04-07T11:30:51;18.10;99.90
9414;DHT22;4746;35.664;139.738;2023-04-07T11:33:27;18.00;99.90
9414;DHT22;4746;35.664;139.738;2023-04-07T11:36:01;18.00;99.90
9414;DHT22;4746;35.664;139.738;2023-04-07T11:38:35;18.00;99.90
9414;DHT22;4746;35.664;139.738;2023-04-07T11:41:14;18.00;99.90
9414;DHT22;4746;35.664;139.738;2023-04-07T11:43:42;18.00;99.90
9414;DHT22;4746;35.664;139.738;2023-04-07T11:46:17;18.00;99.90
9414;DHT22;4746;35.664;139.738;2023-04-07T11:48:45;18.00;99.90
9414;DHT22;4746;35.664;139.738;2023-04-07T11:51:21;18.00;99.90
9414;DHT22;4746;35.664;139.738;2023-04-07T11:53:55;18.00;99.90
9414;DHT22;4746;35.664;139.738;2023-04-07T11:56:23;18.00;99.90
9414;DHT22;4746;35.664;139.738;2023-04-07T11:58:52;18.00;99.90
9414;DHT22;4746;35.664;139.738;2023-04-07T12:01:23;18.00;99.90
9414;DHT22;4746;35.664;139.738;2023-04-07T12:04:12;17.90;99.90
9414;DHT22;4746;35.664;139.738;2023-04-07T12:06:41;18.00;99.90
9414;DHT22;4746;35.664;139.738;2023-04-07T12:09:29;18.00;99.90
9414;DHT22;4746;35.664;139.738;2023-04-07T12:11:59;18.00;99.90
9414;DHT22;4746;35.664;139.738;2023-04-07T12:14:28;18.00;99.90
9414;DHT22;4746;35.664;139.738;2023-04-07T12:16:56;18.00;99.90
9414;DHT22;4746;35.664;139.738;2023-04-07T12:19:30;18.00;99.90
9414;DHT22;4746;35.664;139.738;2023-04-07T12:22:07;18.00;99.90
9414;DHT22;4746;35.664;139.738;2023-04-07T12:24:35;18.00;99.90
9414;DHT22;4746;35.664;139.738;2023-04-07T12:27:03;18.00;99.90
9414;DHT22;4746;35.664;139.738;2023-04-07T12:29:30;18.00;99.90
9414;DHT22;4746;35.664;139.738;2023-04-07T12:31:59;18.00;99.90
9414;DHT22;4746;35.664;139.738;2023-04-07T12:34:26;18.00;99.90
9414;DHT22;4746;35.664;139.738;2023-04-07T12:36:54;18.00;99.90
9414;DHT22;4746;35.664;139.738;2023-04-07T12:39:22;18.00;99.90
9414;DHT22;4746;35.664;139.738;2023-04-07T12:41:49;17.90;99.90
9414;DHT22;4746;35.664;139.738;2023-04-07T12:44:18;17.90;99.90
9414;DHT22;4746;35.664;139.738;2023-04-07T12:46:45;17.90;99.90
9414;DHT22;4746;35.664;139.738;2023-04-07T12:49:13;18.00;99.90
9414;DHT22;4746;35.664;139.738;2023-04-07T12:51:41;18.00;99.90
9414;DHT22;4746;35.664;139.738;2023-04-07T12:54:09;18.00;99.90
9414;DHT22;4746;35.664;139.738;2023-04-07T12:56:36;18.00;99.90
9414;DHT22;4746;35.664;139.738;2023-04-07T12:59:05;18.00;99.90
9414;DHT22;4746;35.664;139.738;2023-04-07T13:01:34;18.00;99.90
9414;DHT22;4746;35.664;139.738;2023-04-07T13:04:02;18.00;99.90
9414;DHT22;4746;35.664;139.738;2023-04-07T13:06:30;18.00;99.90
9414;DHT22;4746;35.664;139.738;2023-04-07T13:08:57;18.00;99.90
9414;DHT22;4746;35.664;139.738;2023-04-07T13:11:25;18.00;99.90
9414;DHT22;4746;35.664;139.738;2023-04-07T13:13:53;18.00;99.90
9414;DHT22;4746;35.664;139.738;2023-04-07T13:16:20;18.10;99.90
9414;DHT22;4746;35.664;139.738;2023-04-07T13:18:47;18.20;99.90
9414;DHT22;4746;35.664;139.738;2023-04-07T13:21:15;18.20;99.90
9414;DHT22;4746;35.664;139.738;2023-04-07T13:23:42;18.20;99.90
9414;DHT22;4746;35.664;139.738;2023-04-07T13:26:10;18.20;99.90
9414;DHT22;4746;35.664;139.738;2023-04-07T13:28:38;18.20;99.90
9414;DHT22;4746;35.664;139.738;2023-04-07T13:31:05;18.20;99.90
9414;DHT22;4746;35.664;139.738;2023-04-07T13:33:34;18.20;99.90
9414;DHT22;4746;35.664;139.738;2023-04-07T13:36:02;18.20;99.90
9414;DHT22;4746;35.664;139.738;2023-04-07T13:38:30;18.20;99.90
9414;DHT22;4746;35.664;139.738;2023-04-07T13:40:58;18.20;99.90
9414;DHT22;4746;35.664;139.738;2023-04-07T13:43:25;18.20;99.90
9414;DHT22;4746;35.664;139.738;2023-04-07T13:45:55;18.20;99.90
9414;DHT22;4746;35.664;139.738;2023-04-07T13:48:24;18.20;99.90
9414;DHT22;4746;35.664;139.738;2023-04-07T13:50:52;18.20;99.90
9414;DHT22;4746;35.664;139.738;2023-04-07T13:53:19;18.20;99.90
9414;DHT22;4746;35.664;139.738;2023-04-07T13:55:48;18.20;99.90
9414;DHT22;4746;35.664;139.738;2023-04-07T13:58:16;18.30;99.90
9414;DHT22;4746;35.664;139.738;2023-04-07T14:00:44;18.30;99.90
9414;DHT22;4746;35.664;139.738;2023-04-07T14:03:11;18.40;99.90
9414;DHT22;4746;35.664;139.738;2023-04-07T14:05:39;18.40;99.90
9414;DHT22;4746;35.664;139.738;2023-04-07T14:08:07;18.40;99.90
9414;DHT22;4746;35.664;139.738;2023-04-07T14:10:34;18.40;99.90
9414;DHT22;4746;35.664;139.738;2023-04-07T14:13:02;18.40;99.90
9414;DHT22;4746;35.664;139.738;2023-04-07T14:15:29;18.50;99.90
9414;DHT22;4746;35.664;139.738;2023-04-07T14:17:57;18.50;99.90
9414;DHT22;4746;35.664;139.738;2023-04-07T14:20:26;18.50;99.90
9414;DHT22;4746;35.664;139.738;2023-04-07T14:22:53;18.50;99.90
9414;DHT22;4746;35.664;139.738;2023-04-07T14:25:21;18.60;99.90
9414;DHT22;4746;35.664;139.738;2023-04-07T14:27:50;18.60;99.90
9414;DHT22;4746;35.664;139.738;2023-04-07T14:30:18;18.60;99.90
9414;DHT22;4746;35.664;139.738;2023-04-07T14:32:45;18.70;99.90
9414;DHT22;4746;35.664;139.738;2023-04-07T14:35:13;18.70;99.90
9414;DHT22;4746;35.664;139.738;2023-04-07T14:37:40;18.70;99.90
9414;DHT22;4746;35.664;139.738;2023-04-07T14:40:08;18.70;99.90
9414;DHT22;4746;35.664;139.738;2023-04-07T14:42:36;18.70;99.90
9414;DHT22;4746;35.664;139.738;2023-04-07T14:45:04;18.70;99.90
9414;DHT22;4746;35.664;139.738;2023-04-07T14:47:32;18.70;99.90
9414;DHT22;4746;35.664;139.738;2023-04-07T14:50:00;18.70;99.90
9414;DHT22;4746;35.664;139.738;2023-04-07T14:52:27;18.60;99.90
9414;DHT22;4746;35.664;139.738;2023-04-07T14:54:55;18.60;99.90
9414;DHT22;4746;35.664;139.738;2023-04-07T14:57:23;18.60;99.90
9414;DHT22;4746;35.664;139.738;2023-04-07T14:59:51;18.60;99.90
9414;DHT22;4746;35.664;139.738;2023-04-07T15:02:19;18.60;99.90
9414;DHT22;4746;35.664;139.738;2023-04-07T15:04:47;18.60;99.90
9414;DHT22;4746;35.664;139.738;2023-04-07T15:07:14;18.60;99.90
9414;DHT22;4746;35.664;139.738;2023-04-07T15:09:42;18.60;99.90
9414;DHT22;4746;35.664;139.738;2023-04-07T15:12:09;18.60;99.90
9414;DHT22;4746;35.664;139.738;2023-04-07T15:14:37;18.60;99.90
9414;DHT22;4746;35.664;139.738;2023-04-07T15:17:05;18.60;99.90
9414;DHT22;4746;35.664;139.738;2023-04-07T15:19:32;18.70;99.90
9414;DHT22;4746;35.664;139.738;2023-04-07T15:21:59;18.70;99.90
9414;DHT22;4746;35.664;139.738;2023-04-07T15:24:27;18.60;99.90
9414;DHT22;4746;35.664;139.738;2023-04-07T15:26:54;18.70;99.90
9414;DHT22;4746;35.664;139.738;2023-04-07T15:29:22;18.70;99.90
9414;DHT22;4746;35.664;139.738;2023-04-07T15:31:49;18.70;99.90
9414;DHT22;4746;35.664;139.738;2023-04-07T15:34:17;18.70;99.90
9414;DHT22;4746;35.664;139.738;2023-04-07T15:36:44;18.70;99.90
9414;DHT22;4746;35.664;139.738;2023-04-07T15:39:12;18.70;99.90
9414;DHT22;4746;35.664;139.738;2023-04-07T15:41:40;18.70;99.90
9414;DHT22;4746;35.664;139.738;2023-04-07T15:44:08;18.70;99.90
9414;DHT22;4746;35.664;139.738;2023-04-07T15:46:42;18.70;99.90
9414;DHT22;4746;35.664;139.738;2023-04-07T15:49:10;18.70;99.90
9414;DHT22;4746;35.664;139.738;2023-04-07T15:51:37;18.80;99.90
9414;DHT22;4746;35.664;139.738;2023-04-07T15:54:05;18.80;99.90
9414;DHT22;4746;35.664;139.738;2023-04-07T15:56:32;18.80;99.90
9414;DHT22;4746;35.664;139.738;2023-04-07T15:59:00;18.80;99.90
9414;DHT22;4746;35.664;139.738;2023-04-07T16:01:27;18.80;99.90